createdAt,value
2023-05-19T00:00:37.661Z,7.33
2023-05-19T00:15:44.058Z,6.60
2023-05-19T00:30:48.746Z,6.77
2023-05-19T00:45:53.905Z,7.13
2023-05-19T01:01:03.849Z,8.07
2023-05-19T01:16:15.667Z,7.70
2023-05-19T01:31:24.181Z,8.20
2023-05-19T01:46:28.984Z,7.23
2023-05-19T02:01:39.743Z,9.07
2023-05-19T02:16:48.356Z,8.87
2023-05-19T02:31:52.928Z,9.37
2023-05-19T02:46:57.420Z,9.10
2023-05-19T03:17:10.692Z,9.27
2023-05-19T03:32:15.599Z,9.00
2023-05-19T03:47:21.077Z,8.80
2023-05-19T04:02:40.440Z,8.20
2023-05-19T04:17:46.037Z,9.70
2023-05-19T04:32:50.961Z,10.07
2023-05-19T04:47:58.066Z,10.50
2023-05-19T05:03:05.115Z,9.90
2023-05-19T05:18:11.414Z,9.87
2023-05-19T05:33:17.410Z,11.80
2023-05-19T05:48:24.282Z,12.53
2023-05-19T06:03:28.991Z,10.93
2023-05-19T06:18:38.088Z,8.93
2023-05-19T06:33:42.788Z,8.67
2023-05-19T06:48:47.306Z,10.23
2023-05-19T07:03:54.465Z,13.93
2023-05-19T07:18:59.493Z,10.30
2023-05-19T07:34:04.417Z,25.03
2023-05-19T07:49:08.970Z,9.33
2023-05-19T08:04:14.157Z,9.77
2023-05-19T08:19:18.848Z,22.70
2023-05-19T08:34:23.448Z,12.20
2023-05-19T08:49:29.138Z,10.77
2023-05-19T09:04:33.989Z,9.73
2023-05-19T09:19:44.206Z,6.63
2023-05-19T09:34:48.834Z,6.33
2023-05-19T09:49:53.626Z,6.43
2023-05-19T10:04:58.602Z,5.63
2023-05-19T10:20:04.834Z,5.27
2023-05-19T10:35:21.856Z,5.30
2023-05-19T10:50:26.920Z,5.00
2023-05-19T11:05:31.815Z,5.17
2023-05-19T11:20:40.274Z,5.13
2023-05-19T11:35:46.960Z,14.27
2023-05-19T11:50:52.401Z,7.00
2023-05-19T12:05:57.598Z,4.63
2023-05-19T12:21:02.602Z,5.50
2023-05-19T12:36:08.740Z,4.10
2023-05-19T12:51:17.718Z,3.30
2023-05-19T13:06:22.994Z,5.87
2023-05-19T13:21:27.380Z,4.07
2023-05-19T13:36:32.798Z,4.10
2023-05-19T13:51:37.696Z,4.37
2023-05-19T14:06:42.415Z,3.00
2023-05-19T14:21:46.910Z,3.80
2023-05-19T14:36:51.342Z,3.10
2023-05-19T14:51:56.055Z,4.27
2023-05-19T15:22:07.985Z,2.70
2023-05-19T15:37:12.566Z,2.90
2023-05-19T15:52:17.031Z,3.10
2023-05-19T16:07:23.781Z,2.50
2023-05-19T16:22:28.428Z,2.63
2023-05-19T16:37:33.200Z,2.33
2023-05-19T16:52:37.890Z,2.80
2023-05-19T17:07:42.453Z,2.73
2023-05-19T17:22:46.885Z,3.07
2023-05-19T17:37:51.329Z,3.17
2023-05-19T17:52:56.475Z,3.50
2023-05-19T18:08:03.544Z,3.30
2023-05-19T18:23:08.393Z,3.67
2023-05-19T18:38:12.989Z,3.50
2023-05-19T18:53:17.462Z,3.63
2023-05-19T19:08:21.907Z,5.07
2023-05-19T19:23:26.404Z,3.80
2023-05-19T19:38:31.018Z,4.00
2023-05-19T19:53:36.347Z,4.13
2023-05-19T20:08:40.966Z,4.80
2023-05-19T20:23:45.508Z,11.33
2023-05-19T20:38:50.155Z,5.20
2023-05-19T20:53:55.371Z,4.53
2023-05-19T21:09:03.696Z,5.87
2023-05-19T21:24:09.642Z,6.07
2023-05-19T21:39:14.077Z,6.20
2023-05-19T21:54:18.839Z,6.43
2023-05-19T22:09:23.373Z,7.63
2023-05-19T22:24:27.852Z,7.60
2023-05-19T22:39:32.404Z,7.27
2023-05-19T22:54:36.826Z,8.33
2023-05-19T23:09:41.677Z,8.03
2023-05-19T23:24:46.914Z,8.00
2023-05-19T23:39:51.587Z,8.33
2023-05-19T23:54:56.195Z,8.57
